sensor_id;sensor_type;location;lat;lon;timestamp;pressure;altitude;pressure_sealevel;temperature;humidity
69848;BME280;57143;55.940;37.496;2023-04-25T00:01:08;98999.59;;;13.89;100.00
69848;BME280;57143;55.940;37.496;2023-04-25T00:03:38;99000.09;;;13.86;100.00
69848;BME280;57143;55.940;37.496;2023-04-25T00:06:06;98995.97;;;13.84;100.00
69848;BME280;57143;55.940;37.496;2023-04-25T00:08:34;98990.47;;;13.79;100.00
69848;BME280;57143;55.940;37.496;2023-04-25T00:11:03;98991.50;;;13.73;100.00
69848;BME280;57143;55.940;37.496;2023-04-25T00:13:30;98993.66;;;13.71;100.00
69848;BME280;57143;55.940;37.496;2023-04-25T00:15:57;98989.78;;;13.67;100.00
69848;BME280;57143;55.940;37.496;2023-04-25T00:18:26;98984.59;;;13.65;100.00
69848;BME280;57143;55.940;37.496;2023-04-25T00:20:54;98979.94;;;13.61;100.00
69848;BME280;57143;55.940;37.496;2023-04-25T00:23:22;98979.88;;;13.56;100.00
69848;BME280;57143;55.940;37.496;2023-04-25T00:25:49;98981.00;;;13.60;100.00
69848;BME280;57143;55.940;37.496;2023-04-25T00:28:18;98982.59;;;13.56;100.00
69848;BME280;57143;55.940;37.496;2023-04-25T00:30:46;98973.22;;;13.47;100.00
69848;BME280;57143;55.940;37.496;2023-04-25T00:33:13;98970.81;;;13.50;100.00
69848;BME280;57143;55.940;37.496;2023-04-25T00:35:41;98970.75;;;13.45;100.00
69848;BME280;57143;55.940;37.496;2023-04-25T00:38:08;98968.34;;;13.49;100.00
69848;BME280;57143;55.940;37.496;2023-04-25T00:40:36;98958.78;;;13.46;100.00
69848;BME280;57143;55.940;37.496;2023-04-25T00:43:04;98967.53;;;13.48;100.00
69848;BME280;57143;55.940;37.496;2023-04-25T00:45:35;98965.88;;;13.47;100.00
69848;BME280;57143;55.940;37.496;2023-04-25T00:48:04;98956.00;;;13.41;100.00
69848;BME280;57143;55.940;37.496;2023-04-25T00:50:33;98969.09;;;13.44;100.00
69848;BME280;57143;55.940;37.496;2023-04-25T00:53:00;98957.66;;;13.42;100.00
69848;BME280;57143;55.940;37.496;2023-04-25T00:55:29;98966.06;;;13.41;100.00
69848;BME280;57143;55.940;37.496;2023-04-25T00:57:57;98957.59;;;13.37;100.00
69848;BME280;57143;55.940;37.496;2023-04-25T01:00:24;98945.31;;;13.35;100.00
69848;BME280;57143;55.940;37.496;2023-04-25T01:02:53;98934.25;;;13.20;100.00
69848;BME280;57143;55.940;37.496;2023-04-25T01:05:20;98912.94;;;13.17;100.00
69848;BME280;57143;55.940;37.496;2023-04-25T01:07:47;98938.13;;;13.29;100.00
69848;BME280;57143;55.940;37.496;2023-04-25T01:10:15;98927.72;;;13.21;100.00
69848;BME280;57143;55.940;37.496;2023-04-25T01:12:42;98929.19;;;13.28;100.00
69848;BME280;57143;55.940;37.496;2023-04-25T01:15:09;98921.53;;;13.25;100.00
69848;BME280;57143;55.940;37.496;2023-04-25T01:17:37;98915.25;;;13.25;100.00
69848;BME280;57143;55.940;37.496;2023-04-25T01:20:08;98905.38;;;13.19;100.00
69848;BME280;57143;55.940;37.496;2023-04-25T01:22:37;98894.31;;;13.25;100.00
69848;BME280;57143;55.940;37.496;2023-04-25T01:25:06;98903.34;;;13.31;100.00
69848;BME280;57143;55.940;37.496;2023-04-25T01:27:35;98899.50;;;13.27;100.00
69848;BME280;57143;55.940;37.496;2023-04-25T01:30:03;98881.75;;;13.24;100.00
69848;BME280;57143;55.940;37.496;2023-04-25T01:32:33;98883.22;;;13.32;100.00
69848;BME280;57143;55.940;37.496;2023-04-25T01:35:05;98885.13;;;13.31;100.00
69848;BME280;57143;55.940;37.496;2023-04-25T01:37:36;98883.78;;;13.34;100.00
69848;BME280;57143;55.940;37.496;2023-04-25T01:40:05;98854.13;;;13.11;100.00
69848;BME280;57143;55.940;37.496;2023-04-25T01:42:33;98872.28;;;13.27;100.00
69848;BME280;57143;55.940;37.496;2023-04-25T01:45:01;98854.19;;;13.16;100.00
69848;BME280;57143;55.940;37.496;2023-04-25T01:47:31;98880.56;;;13.37;100.00
69848;BME280;57143;55.940;37.496;2023-04-25T01:50:00;98887.94;;;13.41;100.00
69848;BME280;57143;55.940;37.496;2023-04-25T01:52:29;98882.19;;;13.38;100.00
69848;BME280;57143;55.940;37.496;2023-04-25T01:54:59;98862.47;;;13.26;100.00
69848;BME280;57143;55.940;37.496;2023-04-25T01:57:31;98877.94;;;13.47;100.00
69848;BME280;57143;55.940;37.496;2023-04-25T01:59:59;98888.31;;;13.50;100.00
69848;BME280;57143;55.940;37.496;2023-04-25T02:02:31;98884.22;;;13.47;100.00
69848;BME280;57143;55.940;37.496;2023-04-25T02:04:59;98897.31;;;13.50;100.00
69848;BME280;57143;55.940;37.496;2023-04-25T02:07:26;98863.97;;;13.38;100.00
69848;BME280;57143;55.940;37.496;2023-04-25T02:09:54;98885.28;;;13.46;100.00
69848;BME280;57143;55.940;37.496;2023-04-25T02:12:23;98879.03;;;13.46;100.00
69848;BME280;57143;55.940;37.496;2023-04-25T02:14:52;98871.34;;;13.43;100.00
69848;BME280;57143;55.940;37.496;2023-04-25T02:17:19;98880.09;;;13.45;100.00
69848;BME280;57143;55.940;37.496;2023-04-25T02:19:47;98877.38;;;13.45;100.00
69848;BME280;57143;55.940;37.496;2023-04-25T02:22:15;98871.09;;;13.44;100.00
69848;BME280;57143;55.940;37.496;2023-04-25T02:24:43;98872.19;;;13.43;100.00
69848;BME280;57143;55.940;37.496;2023-04-25T02:27:10;98867.56;;;13.44;100.00
69848;BME280;57143;55.940;37.496;2023-04-25T02:29:38;98869.72;;;13.42;100.00
69848;BME280;57143;55.940;37.496;2023-04-25T02:32:06;98874.13;;;13.48;100.00
69848;BME280;57143;55.940;37.496;2023-04-25T02:34:33;98861.91;;;13.50;100.00
69848;BME280;57143;55.940;37.496;2023-04-25T02:37:00;98855.16;;;13.53;100.00
69848;BME280;57143;55.940;37.496;2023-04-25T02:39:27;98832.41;;;13.37;100.00
69848;BME280;57143;55.940;37.496;2023-04-25T02:41:55;98844.25;;;13.53;100.00
69848;BME280;57143;55.940;37.496;2023-04-25T02:44:22;98849.72;;;13.53;100.00
69848;BME280;57143;55.940;37.496;2023-04-25T02:46:50;98827.09;;;13.52;100.00
69848;BME280;57143;55.940;37.496;2023-04-25T02:49:17;98801.97;;;13.45;100.00
69848;BME280;57143;55.940;37.496;2023-04-25T02:51:45;98824.19;;;13.64;100.00
69848;BME280;57143;55.940;37.496;2023-04-25T02:54:12;98843.34;;;14.06;100.00
69848;BME280;57143;55.940;37.496;2023-04-25T02:56:39;98861.94;;;14.45;100.00
69848;BME280;57143;55.940;37.496;2023-04-25T02:59:06;98923.91;;;15.01;100.00
69848;BME280;57143;55.940;37.496;2023-04-25T03:01:33;98895.69;;;15.38;100.00
69848;BME280;57143;55.940;37.496;2023-04-25T03:04:02;98891.19;;;15.78;100.00
69848;BME280;57143;55.940;37.496;2023-04-25T03:06:29;98912.84;;;16.15;100.00
69848;BME280;57143;55.940;37.496;2023-04-25T03:08:56;98929.25;;;16.55;100.00
69848;BME280;57143;55.940;37.496;2023-04-25T03:11:25;98954.44;;;16.82;100.00
69848;BME280;57143;55.940;37.496;2023-04-25T03:13:52;98970.56;;;16.89;100.00
69848;BME280;57143;55.940;37.496;2023-04-25T03:16:19;98984.44;;;17.27;100.00
69848;BME280;57143;55.940;37.496;2023-04-25T03:18:46;98974.41;;;16.73;100.00
69848;BME280;57143;55.940;37.496;2023-04-25T03:21:16;98967.25;;;16.32;100.00
69848;BME280;57143;55.940;37.496;2023-04-25T03:23:44;98960.13;;;16.05;100.00
69848;BME280;57143;55.940;37.496;2023-04-25T03:26:11;98947.75;;;15.78;100.00
69848;BME280;57143;55.940;37.496;2023-04-25T03:28:38;98933.50;;;15.61;100.00
69848;BME280;57143;55.940;37.496;2023-04-25T03:31:05;98945.00;;;15.68;100.00
69848;BME280;57143;55.940;37.496;2023-04-25T03:33:33;98944.44;;;15.61;100.00
69848;BME280;57143;55.940;37.496;2023-04-25T03:36:00;98935.66;;;15.54;100.00
69848;BME280;57143;55.940;37.496;2023-04-25T03:38:29;98929.88;;;15.45;100.00
69848;BME280;57143;55.940;37.496;2023-04-25T03:40:56;98910.22;;;15.43;100.00
69848;BME280;57143;55.940;37.496;2023-04-25T03:43:23;98917.63;;;15.48;100.00
69848;BME280;57143;55.940;37.496;2023-04-25T03:45:51;98920.66;;;15.56;100.00
69848;BME280;57143;55.940;37.496;2023-04-25T03:48:18;98901.25;;;15.48;100.00
69848;BME280;57143;55.940;37.496;2023-04-25T03:50:47;98926.94;;;15.62;100.00
69848;BME280;57143;55.940;37.496;2023-04-25T03:53:14;98926.72;;;15.73;100.00
69848;BME280;57143;55.940;37.496;2023-04-25T03:55:42;98935.22;;;15.92;100.00
69848;BME280;57143;55.940;37.496;2023-04-25T03:58:10;98939.06;;;16.06;100.00
69848;BME280;57143;55.940;37.496;2023-04-25T04:00:37;98923.78;;;16.15;100.00
69848;BME280;57143;55.940;37.496;2023-04-25T04:03:04;98934.44;;;16.42;100.00
69848;BME280;57143;55.940;37.496;2023-04-25T04:05:31;98941.88;;;16.56;100.00
69848;BME280;57143;55.940;37.496;2023-04-25T04:07:58;98935.28;;;16.67;100.00
69848;BME280;57143;55.940;37.496;2023-04-25T04:10:26;98925.44;;;16.66;100.00
69848;BME280;57143;55.940;37.496;2023-04-25T04:12:54;98968.00;;;17.22;100.00
69848;BME280;57143;55.940;37.496;2023-04-25T04:15:22;98966.94;;;17.18;100.00
69848;BME280;57143;55.940;37.496;2023-04-25T04:17:49;98973.91;;;18.18;100.00
69848;BME280;57143;55.940;37.496;2023-04-25T04:20:16;98992.03;;;18.14;100.00
69848;BME280;57143;55.940;37.496;2023-04-25T04:22:43;98994.69;;;18.29;100.00
69848;BME280;57143;55.940;37.496;2023-04-25T04:25:10;98988.44;;;18.24;100.00
69848;BME280;57143;55.940;37.496;2023-04-25T04:27:38;98985.97;;;18.17;100.00
69848;BME280;57143;55.940;37.496;2023-04-25T04:30:08;98984.41;;;18.06;100.00
69848;BME280;57143;55.940;37.496;2023-04-25T04:32:35;98989.97;;;19.36;100.00
69848;BME280;57143;55.940;37.496;2023-04-25T04:35:03;99008.00;;;20.31;100.00
69848;BME280;57143;55.940;37.496;2023-04-25T04:37:32;99019.41;;;20.94;100.00
69848;BME280;57143;55.940;37.496;2023-04-25T04:39:59;99028.78;;;21.12;100.00
69848;BME280;57143;55.940;37.496;2023-04-25T04:42:31;99022.25;;;20.89;100.00
69848;BME280;57143;55.940;37.496;2023-04-25T04:44:58;99018.44;;;19.92;100.00
69848;BME280;57143;55.940;37.496;2023-04-25T04:47:31;99008.16;;;19.32;100.00
69848;BME280;57143;55.940;37.496;2023-04-25T04:49:59;99014.31;;;18.85;100.00
69848;BME280;57143;55.940;37.496;2023-04-25T04:52:26;98996.56;;;18.39;100.00
69848;BME280;57143;55.940;37.496;2023-04-25T04:54:53;98989.31;;;18.09;100.00
69848;BME280;57143;55.940;37.496;2023-04-25T04:57:21;98992.53;;;18.65;100.00
69848;BME280;57143;55.940;37.496;2023-04-25T04:59:48;98979.91;;;18.25;100.00
69848;BME280;57143;55.940;37.496;2023-04-25T05:02:16;98965.88;;;17.88;100.00
69848;BME280;57143;55.940;37.496;2023-04-25T05:04:44;98958.09;;;17.57;100.00
69848;BME280;57143;55.940;37.496;2023-04-25T05:07:12;98947.25;;;17.11;100.00
69848;BME280;57143;55.940;37.496;2023-04-25T05:09:40;98939.59;;;16.98;100.00
69848;BME280;57143;55.940;37.496;2023-04-25T05:12:07;98934.63;;;17.25;100.00
69848;BME280;57143;55.940;37.496;2023-04-25T05:14:34;98946.25;;;18.15;100.00
69848;BME280;57143;55.940;37.496;2023-04-25T05:17:02;98975.59;;;18.58;100.00
69848;BME280;57143;55.940;37.496;2023-04-25T05:19:32;98979.69;;;19.18;100.00
69848;BME280;57143;55.940;37.496;2023-04-25T05:22:01;98980.19;;;19.72;100.00
69848;BME280;57143;55.940;37.496;2023-04-25T05:24:28;98994.47;;;20.53;100.00
69848;BME280;57143;55.940;37.496;2023-04-25T05:26:56;99014.88;;;21.03;100.00
69848;BME280;57143;55.940;37.496;2023-04-25T05:29:23;99011.03;;;21.18;100.00
69848;BME280;57143;55.940;37.496;2023-04-25T05:31:50;99005.47;;;21.36;100.00
69848;BME280;57143;55.940;37.496;2023-04-25T05:34:18;99016.63;;;21.58;100.00
69848;BME280;57143;55.940;37.496;2023-04-25T05:36:45;99026.84;;;22.12;100.00
69848;BME280;57143;55.940;37.496;2023-04-25T05:39:16;99017.13;;;22.15;100.00
69848;BME280;57143;55.940;37.496;2023-04-25T05:41:43;99022.03;;;21.04;100.00
69848;BME280;57143;55.940;37.496;2023-04-25T05:44:10;99015.28;;;20.59;100.00
69848;BME280;57143;55.940;37.496;2023-04-25T05:46:37;99009.41;;;20.10;100.00
69848;BME280;57143;55.940;37.496;2023-04-25T05:49:05;99002.69;;;19.98;100.00
69848;BME280;57143;55.940;37.496;2023-04-25T05:51:32;99010.63;;;19.99;100.00
69848;BME280;57143;55.940;37.496;2023-04-25T05:53:59;99004.94;;;19.72;100.00
69848;BME280;57143;55.940;37.496;2023-04-25T05:56:28;98998.56;;;19.77;100.00
69848;BME280;57143;55.940;37.496;2023-04-25T05:58:55;98998.16;;;19.65;100.00
69848;BME280;57143;55.940;37.496;2023-04-25T06:01:22;99002.53;;;19.42;100.00
69848;BME280;57143;55.940;37.496;2023-04-25T06:03:50;98998.28;;;19.54;100.00
69848;BME280;57143;55.940;37.496;2023-04-25T06:06:18;98993.50;;;20.44;100.00
69848;BME280;57143;55.940;37.496;2023-04-25T06:08:45;99007.53;;;21.12;100.00
69848;BME280;57143;55.940;37.496;2023-04-25T06:11:12;98997.13;;;21.82;100.00
69848;BME280;57143;55.940;37.496;2023-04-25T06:13:41;99001.97;;;22.26;100.00
69848;BME280;57143;55.940;37.496;2023-04-25T06:16:08;99006.75;;;22.34;100.00
69848;BME280;57143;55.940;37.496;2023-04-25T06:18:35;98997.78;;;22.50;100.00
69848;BME280;57143;55.940;37.496;2023-04-25T06:21:03;98999.69;;;22.41;100.00
69848;BME280;57143;55.940;37.496;2023-04-25T06:23:30;98999.84;;;22.58;100.00
69848;BME280;57143;55.940;37.496;2023-04-25T06:25:57;98995.75;;;22.20;100.00
69848;BME280;57143;55.940;37.496;2023-04-25T06:28:25;98987.06;;;22.49;100.00
69848;BME280;57143;55.940;37.496;2023-04-25T06:30:53;98997.59;;;22.47;100.00
69848;BME280;57143;55.940;37.496;2023-04-25T06:35:48;98995.47;;;22.79;100.00
69848;BME280;57143;55.940;37.496;2023-04-25T06:38:15;98985.47;;;22.70;100.00
69848;BME280;57143;55.940;37.496;2023-04-25T06:40:42;98993.44;;;22.71;96.01
69848;BME280;57143;55.940;37.496;2023-04-25T06:43:10;98992.91;;;22.83;92.14
69848;BME280;57143;55.940;37.496;2023-04-25T06:45:37;98990.19;;;22.92;94.87
69848;BME280;57143;55.940;37.496;2023-04-25T06:48:06;98978.66;;;23.20;94.16
69848;BME280;57143;55.940;37.496;2023-04-25T06:50:33;98978.97;;;23.19;92.51
69848;BME280;57143;55.940;37.496;2023-04-25T06:53:01;98995.66;;;23.05;87.95
69848;BME280;57143;55.940;37.496;2023-04-25T06:55:28;98996.06;;;23.21;85.30
69848;BME280;57143;55.940;37.496;2023-04-25T06:57:56;98991.00;;;23.45;84.90
69848;BME280;57143;55.940;37.496;2023-04-25T07:00:23;98988.53;;;23.35;84.78
69848;BME280;57143;55.940;37.496;2023-04-25T07:02:50;98992.66;;;23.24;84.70
69848;BME280;57143;55.940;37.496;2023-04-25T07:05:21;98985.50;;;23.53;81.84
69848;BME280;57143;55.940;37.496;2023-04-25T07:07:49;98989.00;;;23.37;84.68
69848;BME280;57143;55.940;37.496;2023-04-25T07:10:16;98985.75;;;23.35;86.24
69848;BME280;57143;55.940;37.496;2023-04-25T07:12:43;98998.06;;;23.29;80.67
69848;BME280;57143;55.940;37.496;2023-04-25T07:15:10;99006.78;;;23.44;82.39
69848;BME280;57143;55.940;37.496;2023-04-25T07:17:37;99001.31;;;23.00;82.73
69848;BME280;57143;55.940;37.496;2023-04-25T07:20:06;98993.56;;;22.88;82.82
69848;BME280;57143;55.940;37.496;2023-04-25T07:22:36;99002.78;;;23.06;79.43
69848;BME280;57143;55.940;37.496;2023-04-25T07:25:04;98999.75;;;23.16;73.05
69848;BME280;57143;55.940;37.496;2023-04-25T07:27:32;98983.97;;;22.86;77.26
69848;BME280;57143;55.940;37.496;2023-04-25T07:29:59;98991.31;;;22.90;76.68
69848;BME280;57143;55.940;37.496;2023-04-25T07:32:26;98993.47;;;23.02;79.28
69848;BME280;57143;55.940;37.496;2023-04-25T07:34:54;98987.28;;;23.49;80.07
69848;BME280;57143;55.940;37.496;2023-04-25T07:37:21;98981.16;;;23.69;78.67
69848;BME280;57143;55.940;37.496;2023-04-25T07:39:50;98985.84;;;23.52;78.65
69848;BME280;57143;55.940;37.496;2023-04-25T07:42:17;98973.34;;;23.02;83.40
69848;BME280;57143;55.940;37.496;2023-04-25T07:44:44;98988.50;;;22.82;87.00
69848;BME280;57143;55.940;37.496;2023-04-25T07:47:12;98980.25;;;23.21;82.63
69848;BME280;57143;55.940;37.496;2023-04-25T07:49:40;98979.31;;;22.95;85.71
69848;BME280;57143;55.940;37.496;2023-04-25T07:52:07;98970.22;;;22.72;80.48
69848;BME280;57143;55.940;37.496;2023-04-25T07:54:34;98981.25;;;22.95;79.99
69848;BME280;57143;55.940;37.496;2023-04-25T07:57:03;98970.41;;;22.98;79.12
69848;BME280;57143;55.940;37.496;2023-04-25T07:59:32;98993.19;;;23.04;84.03
69848;BME280;57143;55.940;37.496;2023-04-25T08:01:59;98985.91;;;22.63;84.55
69848;BME280;57143;55.940;37.496;2023-04-25T08:04:27;98983.53;;;22.92;82.88
69848;BME280;57143;55.940;37.496;2023-04-25T08:06:54;98974.53;;;22.87;83.63
69848;BME280;57143;55.940;37.496;2023-04-25T08:09:21;98983.78;;;22.60;91.50
69848;BME280;57143;55.940;37.496;2023-04-25T08:11:48;98987.88;;;22.14;87.52
69848;BME280;57143;55.940;37.496;2023-04-25T08:14:17;98977.44;;;22.11;89.55
69848;BME280;57143;55.940;37.496;2023-04-25T08:16:44;98970.34;;;21.69;93.52
69848;BME280;57143;55.940;37.496;2023-04-25T08:19:12;98973.19;;;21.37;98.31
69848;BME280;57143;55.940;37.496;2023-04-25T08:21:39;98967.97;;;20.90;100.00
69848;BME280;57143;55.940;37.496;2023-04-25T08:24:06;98969.22;;;20.65;100.00
69848;BME280;57143;55.940;37.496;2023-04-25T08:26:33;98955.66;;;20.68;100.00
69848;BME280;57143;55.940;37.496;2023-04-25T08:29:02;98963.78;;;20.92;100.00
69848;BME280;57143;55.940;37.496;2023-04-25T08:31:31;98966.06;;;20.39;100.00
69848;BME280;57143;55.940;37.496;2023-04-25T08:33:58;98968.47;;;20.04;100.00
69848;BME280;57143;55.940;37.496;2023-04-25T08:36:26;98958.63;;;20.21;100.00
69848;BME280;57143;55.940;37.496;2023-04-25T08:38:53;98967.63;;;19.85;100.00
69848;BME280;57143;55.940;37.496;2023-04-25T08:41:21;98957.56;;;20.17;100.00
69848;BME280;57143;55.940;37.496;2023-04-25T08:43:49;98967.47;;;20.18;100.00
69848;BME280;57143;55.940;37.496;2023-04-25T08:46:18;98957.28;;;20.19;100.00
69848;BME280;57143;55.940;37.496;2023-04-25T08:48:47;98952.94;;;19.94;100.00
69848;BME280;57143;55.940;37.496;2023-04-25T08:51:21;98958.34;;;19.81;100.00
69848;BME280;57143;55.940;37.496;2023-04-25T08:53:51;98949.63;;;19.55;100.00
69848;BME280;57143;55.940;37.496;2023-04-25T08:56:18;98946.06;;;19.73;100.00
69848;BME280;57143;55.940;37.496;2023-04-25T08:58:49;98945.69;;;19.80;100.00
69848;BME280;57143;55.940;37.496;2023-04-25T09:01:16;98934.63;;;19.66;100.00
69848;BME280;57143;55.940;37.496;2023-04-25T09:03:44;98926.44;;;19.80;100.00
69848;BME280;57143;55.940;37.496;2023-04-25T09:06:14;98932.03;;;19.93;100.00
69848;BME280;57143;55.940;37.496;2023-04-25T09:08:42;98930.28;;;20.21;100.00
69848;BME280;57143;55.940;37.496;2023-04-25T09:11:09;98923.78;;;20.81;100.00
69848;BME280;57143;55.940;37.496;2023-04-25T09:13:36;98940.38;;;20.76;100.00
69848;BME280;57143;55.940;37.496;2023-04-25T09:16:04;98936.72;;;20.81;100.00
69848;BME280;57143;55.940;37.496;2023-04-25T09:18:33;98936.50;;;20.77;100.00
69848;BME280;57143;55.940;37.496;2023-04-25T09:21:06;98929.13;;;20.73;100.00
69848;BME280;57143;55.940;37.496;2023-04-25T09:23:41;98919.63;;;20.51;100.00
69848;BME280;57143;55.940;37.496;2023-04-25T09:26:08;98929.06;;;20.45;100.00
69848;BME280;57143;55.940;37.496;2023-04-25T09:28:36;98920.00;;;20.26;100.00
69848;BME280;57143;55.940;37.496;2023-04-25T09:31:03;98922.91;;;19.98;100.00
69848;BME280;57143;55.940;37.496;2023-04-25T09:33:32;98902.00;;;19.97;100.00
69848;BME280;57143;55.940;37.496;2023-04-25T09:36:04;98913.84;;;20.16;100.00
69848;BME280;57143;55.940;37.496;2023-04-25T09:38:39;98909.81;;;20.27;100.00
69848;BME280;57143;55.940;37.496;2023-04-25T09:41:09;98906.03;;;20.23;100.00
69848;BME280;57143;55.940;37.496;2023-04-25T09:43:37;98903.72;;;20.30;100.00
69848;BME280;57143;55.940;37.496;2023-04-25T09:46:08;98905.81;;;19.82;100.00
69848;BME280;57143;55.940;37.496;2023-04-25T09:48:37;98898.16;;;19.79;100.00
69848;BME280;57143;55.940;37.496;2023-04-25T09:51:05;98893.81;;;19.92;100.00
69848;BME280;57143;55.940;37.496;2023-04-25T09:53:34;98903.88;;;20.20;100.00
69848;BME280;57143;55.940;37.496;2023-04-25T09:56:03;98894.06;;;20.32;100.00
69848;BME280;57143;55.940;37.496;2023-04-25T09:58:34;98892.41;;;20.31;100.00
69848;BME280;57143;55.940;37.496;2023-04-25T10:01:03;98904.22;;;20.13;100.00
69848;BME280;57143;55.940;37.496;2023-04-25T10:03:32;98892.94;;;19.96;100.00
69848;BME280;57143;55.940;37.496;2023-04-25T10:06:02;98906.69;;;19.96;100.00
69848;BME280;57143;55.940;37.496;2023-04-25T10:08:32;98898.75;;;19.95;100.00
69848;BME280;57143;55.940;37.496;2023-04-25T10:11:00;98882.50;;;19.93;100.00
69848;BME280;57143;55.940;37.496;2023-04-25T10:13:29;98890.41;;;20.00;100.00
69848;BME280;57143;55.940;37.496;2023-04-25T10:15:59;98890.44;;;20.18;100.00
69848;BME280;57143;55.940;37.496;2023-04-25T10:18:28;98884.66;;;20.15;100.00
69848;BME280;57143;55.940;37.496;2023-04-25T10:20:57;98893.47;;;20.17;100.00
69848;BME280;57143;55.940;37.496;2023-04-25T10:23:25;98855.19;;;20.02;100.00
69848;BME280;57143;55.940;37.496;2023-04-25T10:25:53;98870.09;;;20.14;100.00
69848;BME280;57143;55.940;37.496;2023-04-25T10:28:21;98871.81;;;20.10;100.00
69848;BME280;57143;55.940;37.496;2023-04-25T10:30:59;98872.63;;;20.11;100.00
69848;BME280;57143;55.940;37.496;2023-04-25T10:33:33;98853.97;;;20.08;100.00
69848;BME280;57143;55.940;37.496;2023-04-25T10:36:09;98858.38;;;19.90;100.00
69848;BME280;57143;55.940;37.496;2023-04-25T10:38:36;98860.38;;;19.66;100.00
69848;BME280;57143;55.940;37.496;2023-04-25T10:41:04;98870.84;;;19.45;100.00
69848;BME280;57143;55.940;37.496;2023-04-25T10:43:35;98859.84;;;19.45;100.00
69848;BME280;57143;55.940;37.496;2023-04-25T10:46:13;98866.22;;;19.41;100.00
69848;BME280;57143;55.940;37.496;2023-04-25T10:48:45;98853.47;;;19.69;100.00
69848;BME280;57143;55.940;37.496;2023-04-25T10:51:17;98852.72;;;19.63;100.00
69848;BME280;57143;55.940;37.496;2023-04-25T10:53:45;98834.38;;;19.59;100.00
69848;BME280;57143;55.940;37.496;2023-04-25T10:56:17;98845.88;;;19.61;100.00
69848;BME280;57143;55.940;37.496;2023-04-25T10:58:45;98843.66;;;19.63;100.00
69848;BME280;57143;55.940;37.496;2023-04-25T11:01:14;98837.78;;;19.88;100.00
69848;BME280;57143;55.940;37.496;2023-04-25T11:03:42;98838.16;;;20.00;100.00
69848;BME280;57143;55.940;37.496;2023-04-25T11:06:18;98839.34;;;19.75;100.00
69848;BME280;57143;55.940;37.496;2023-04-25T11:08:49;98825.13;;;19.87;100.00
69848;BME280;57143;55.940;37.496;2023-04-25T11:11:17;98823.25;;;20.01;100.00
69848;BME280;57143;55.940;37.496;2023-04-25T11:13:47;98817.84;;;19.96;100.00
69848;BME280;57143;55.940;37.496;2023-04-25T11:16:16;98814.47;;;20.17;100.00
69848;BME280;57143;55.940;37.496;2023-04-25T11:18:44;98808.19;;;20.17;100.00
69848;BME280;57143;55.940;37.496;2023-04-25T11:21:11;98819.91;;;20.22;100.00
69848;BME280;57143;55.940;37.496;2023-04-25T11:23:39;98825.47;;;20.36;100.00
69848;BME280;57143;55.940;37.496;2023-04-25T11:26:06;98804.97;;;20.10;100.00
69848;BME280;57143;55.940;37.496;2023-04-25T11:28:33;98802.41;;;19.63;100.00
69848;BME280;57143;55.940;37.496;2023-04-25T11:31:02;98804.56;;;19.66;100.00
69848;BME280;57143;55.940;37.496;2023-04-25T11:33:32;98802.84;;;19.70;100.00
69848;BME280;57143;55.940;37.496;2023-04-25T11:36:00;98801.72;;;19.89;100.00
69848;BME280;57143;55.940;37.496;2023-04-25T11:38:27;98797.84;;;19.90;100.00
69848;BME280;57143;55.940;37.496;2023-04-25T11:40:55;98788.41;;;19.96;100.00
69848;BME280;57143;55.940;37.496;2023-04-25T11:43:22;98791.69;;;19.80;100.00
69848;BME280;57143;55.940;37.496;2023-04-25T11:45:50;98786.72;;;19.82;100.00
69848;BME280;57143;55.940;37.496;2023-04-25T11:48:18;98781.88;;;19.92;100.00
69848;BME280;57143;55.940;37.496;2023-04-25T11:50:47;98771.09;;;19.96;100.00
69848;BME280;57143;55.940;37.496;2023-04-25T11:53:14;98764.41;;;20.02;100.00
69848;BME280;57143;55.940;37.496;2023-04-25T11:55:44;98771.59;;;19.98;100.00
69848;BME280;57143;55.940;37.496;2023-04-25T11:58:11;98773.88;;;20.09;100.00
69848;BME280;57143;55.940;37.496;2023-04-25T12:00:41;98722.19;;;19.93;100.00
69848;BME280;57143;55.940;37.496;2023-04-25T12:03:09;98753.16;;;20.30;100.00
69848;BME280;57143;55.940;37.496;2023-04-25T12:05:36;98751.94;;;20.04;100.00
69848;BME280;57143;55.940;37.496;2023-04-25T12:08:13;98755.97;;;19.93;100.00
69848;BME280;57143;55.940;37.496;2023-04-25T12:10:42;98748.44;;;19.85;100.00
69848;BME280;57143;55.940;37.496;2023-04-25T12:13:20;98759.81;;;19.79;100.00
69848;BME280;57143;55.940;37.496;2023-04-25T12:15:48;98758.63;;;19.66;100.00
69848;BME280;57143;55.940;37.496;2023-04-25T12:18:19;98743.78;;;19.67;100.00
69848;BME280;57143;55.940;37.496;2023-04-25T12:20:46;98747.03;;;19.69;100.00
69848;BME280;57143;55.940;37.496;2023-04-25T12:23:15;98728.25;;;19.58;100.00
69848;BME280;57143;55.940;37.496;2023-04-25T12:25:43;98730.31;;;19.66;100.00
69848;BME280;57143;55.940;37.496;2023-04-25T12:28:13;98735.06;;;19.46;100.00
69848;BME280;57143;55.940;37.496;2023-04-25T12:30:58;98699.38;;;19.23;100.00
69848;BME280;57143;55.940;37.496;2023-04-25T12:33:27;98709.81;;;19.44;100.00
69848;BME280;57143;55.940;37.496;2023-04-25T12:35:55;98719.22;;;19.38;100.00
69848;BME280;57143;55.940;37.496;2023-04-25T12:38:25;98713.81;;;19.33;100.00
69848;BME280;57143;55.940;37.496;2023-04-25T12:40:53;98710.53;;;19.31;100.00
69848;BME280;57143;55.940;37.496;2023-04-25T12:43:21;98709.47;;;19.27;100.00
69848;BME280;57143;55.940;37.496;2023-04-25T12:45:48;98697.97;;;19.25;100.00
69848;BME280;57143;55.940;37.496;2023-04-25T12:48:17;98692.13;;;19.32;100.00